Time;durP1;ratioP1;P1;durP2;ratioP2;P2;SDS_P1;SDS_P2;PMS_P1;PMS_P2;Temp;Humidity;BMP_temperature;BMP_pressure;BME280_temperature;BME280_humidity;BME280_pressure;Samples;Min_cycle;Max_cycle;Signal;HPM_P1;HPM_P2
2022/03/31 00:00:57;;;;;;;21.60;14.05;;;8.20;99.90;;;;;;1950909;73;21049;-76
2022/03/31 00:03:26;;;;;;;22.40;13.55;;;8.10;99.90;;;;;;1943589;73;21244;-76
2022/03/31 00:05:53;;;;;;;20.72;13.72;;;8.10;99.90;;;;;;1954609;73;21510;-76
2022/03/31 00:08:21;;;;;;;20.65;14.50;;;8.00;99.90;;;;;;1947222;73;21154;-76
2022/03/31 00:10:53;;;;;;;21.25;14.47;;;8.00;99.90;;;;;;1924290;73;21230;-76
2022/03/31 00:13:24;;;;;;;19.17;12.78;;;8.00;99.90;;;;;;1959202;73;21120;-77
2022/03/31 00:15:53;;;;;;;24.52;14.03;;;8.00;99.90;;;;;;1912850;74;21164;-76
2022/03/31 00:18:22;;;;;;;23.32;14.18;;;7.90;99.90;;;;;;1952792;73;21101;-76
2022/03/31 00:20:49;;;;;;;21.57;13.98;;;8.00;99.90;;;;;;1955898;73;21494;-77
2022/03/31 00:23:17;;;;;;;20.32;14.15;;;8.10;99.90;;;;;;1938957;73;21136;-77
2022/03/31 00:25:46;;;;;;;22.15;14.55;;;8.00;99.90;;;;;;1945457;74;21283;-77
2022/03/31 00:28:14;;;;;;;18.05;13.50;;;8.10;99.90;;;;;;1934759;73;21109;-77
2022/03/31 00:30:41;;;;;;;17.65;12.68;;;8.20;99.90;;;;;;1948517;73;21523;-78
2022/03/31 00:33:08;;;;;;;17.25;12.82;;;8.30;99.90;;;;;;1952881;73;21180;-77
2022/03/31 00:35:36;;;;;;;20.68;13.85;;;8.40;99.90;;;;;;1943965;73;21183;-77
2022/03/31 00:38:03;;;;;;;18.45;12.90;;;8.50;99.90;;;;;;1957762;73;21119;-77
2022/03/31 00:40:31;;;;;;;21.30;13.08;;;8.50;99.90;;;;;;1958743;73;21119;-77
2022/03/31 00:42:58;;;;;;;17.10;12.68;;;8.50;99.90;;;;;;1933421;74;21214;-78
2022/03/31 00:45:27;;;;;;;20.45;13.78;;;8.40;99.90;;;;;;1967829;73;21466;-77
2022/03/31 00:47:55;;;;;;;17.12;13.45;;;8.40;99.90;;;;;;1945506;73;21154;-77
2022/03/31 00:50:26;;;;;;;22.85;14.80;;;8.30;99.90;;;;;;1940218;73;21092;-77
2022/03/31 00:52:53;;;;;;;17.52;13.40;;;8.20;99.90;;;;;;1945373;73;21092;-77
2022/03/31 00:55:21;;;;;;;23.22;14.18;;;8.10;99.90;;;;;;1958503;73;21122;-77
2022/03/31 00:57:55;;;;;;;21.15;13.80;;;8.00;99.90;;;;;;1946088;73;21088;-78
2022/03/31 01:00:18;;;;;;;21.33;13.83;;;8.20;99.90;;;;;;1968104;71;21516;-78
2022/03/31 01:02:45;;;;;;;21.07;13.55;;;8.30;99.90;;;;;;1943379;73;21550;-78
2022/03/31 01:05:18;;;;;;;21.62;14.07;;;8.30;99.90;;;;;;1948046;73;21119;-78
2022/03/31 01:07:45;;;;;;;20.02;13.53;;;8.20;99.90;;;;;;1942519;72;21216;-78
2022/03/31 01:10:14;;;;;;;21.15;13.75;;;8.20;99.90;;;;;;1946864;72;21157;-78
2022/03/31 01:12:42;;;;;;;27.77;13.20;;;8.10;99.90;;;;;;1953128;73;21084;-78
2022/03/31 01:15:15;;;;;;;21.30;13.35;;;8.20;99.90;;;;;;1946112;73;21174;-78
2022/03/31 01:17:44;;;;;;;19.35;13.88;;;8.00;99.90;;;;;;1987004;72;21094;-78
2022/03/31 01:20:14;;;;;;;16.95;13.72;;;7.90;99.90;;;;;;1985376;72;21146;-77
2022/03/31 01:22:42;;;;;;;19.20;12.95;;;8.00;99.90;;;;;;1955606;72;21575;-78
2022/03/31 01:25:10;;;;;;;19.62;12.05;;;7.80;99.90;;;;;;1975209;71;21571;-77
2022/03/31 01:27:43;;;;;;;19.62;13.53;;;7.90;99.90;;;;;;1984035;72;21079;-78
2022/03/31 01:30:16;;;;;;;20.57;13.13;;;7.80;99.90;;;;;;1957325;72;21110;-78
2022/03/31 01:32:44;;;;;;;17.77;13.18;;;7.80;99.90;;;;;;1911118;74;21107;-78
2022/03/31 01:35:11;;;;;;;16.42;12.15;;;7.80;99.90;;;;;;1950766;73;21130;-78
2022/03/31 01:37:38;;;;;;;17.40;12.70;;;7.70;99.90;;;;;;1955502;73;21591;-78
2022/03/31 01:40:06;;;;;;;17.02;12.90;;;7.70;99.90;;;;;;1925567;73;21195;-78
2022/03/31 01:42:34;;;;;;;15.43;11.88;;;7.70;99.90;;;;;;1953282;72;21462;-78
2022/03/31 01:45:01;;;;;;;16.48;12.03;;;7.70;99.90;;;;;;1959058;73;21087;-78
2022/03/31 01:47:29;;;;;;;15.90;11.45;;;7.70;99.90;;;;;;1946215;73;21187;-78
2022/03/31 01:49:56;;;;;;;18.52;11.18;;;7.80;99.90;;;;;;1959296;73;21102;-78
2022/03/31 01:52:23;;;;;;;17.95;12.07;;;8.00;99.90;;;;;;1947151;73;21083;-77
2022/03/31 01:54:52;;;;;;;20.27;12.63;;;7.70;99.90;;;;;;1955020;73;21104;-78
2022/03/31 01:57:19;;;;;;;14.85;11.33;;;7.70;99.90;;;;;;1938175;73;21502;-78
2022/03/31 01:59:46;;;;;;;16.50;12.05;;;7.60;99.90;;;;;;1939021;73;21115;-78
2022/03/31 02:02:14;;;;;;;15.50;11.20;;;7.80;99.90;;;;;;1924710;74;21471;-78
2022/03/31 02:04:42;;;;;;;15.75;11.30;;;7.80;99.90;;;;;;1930100;73;21204;-78
2022/03/31 02:07:10;;;;;;;18.57;11.40;;;7.80;99.90;;;;;;1957542;73;21079;-78
2022/03/31 02:09:37;;;;;;;14.93;10.90;;;7.80;99.90;;;;;;1958962;73;21116;-78
2022/03/31 02:12:05;;;;;;;15.58;11.53;;;7.70;99.90;;;;;;1945822;73;21082;-78
2022/03/31 02:14:37;;;;;;;18.17;12.20;;;7.70;99.90;;;;;;1966165;73;21063;-78
2022/03/31 02:17:01;;;;;;;15.80;11.05;;;7.60;99.90;;;;;;1959482;73;21519;-78
2022/03/31 02:19:29;;;;;;;16.05;10.63;;;7.50;99.90;;;;;;1926633;73;21257;-77
2022/03/31 02:21:57;;;;;;;15.45;11.05;;;7.70;99.90;;;;;;1948549;73;21120;-78
2022/03/31 02:24:24;;;;;;;16.80;10.80;;;7.70;99.90;;;;;;1935119;73;21495;-78
2022/03/31 02:26:51;;;;;;;12.95;10.28;;;7.70;99.90;;;;;;1952669;73;21155;-78
2022/03/31 02:29:20;;;;;;;18.80;10.78;;;7.70;99.90;;;;;;1954503;73;21086;-78
2022/03/31 02:31:48;;;;;;;12.95;10.50;;;7.60;99.90;;;;;;1987172;71;21130;-77
2022/03/31 02:34:16;;;;;;;13.72;10.28;;;7.60;99.90;;;;;;1935004;73;21575;-78
2022/03/31 02:36:44;;;;;;;13.95;10.50;;;7.70;99.90;;;;;;1945339;73;21096;-77
2022/03/31 02:39:12;;;;;;;12.40;9.78;;;7.80;99.90;;;;;;1945954;73;21195;-77
2022/03/31 02:41:40;;;;;;;13.70;10.15;;;7.90;99.90;;;;;;1918308;74;21507;-78
2022/03/31 02:44:07;;;;;;;16.80;10.58;;;7.80;99.90;;;;;;1959122;73;21423;-78
2022/03/31 02:46:35;;;;;;;20.08;10.45;;;7.80;99.90;;;;;;1927141;73;21454;-78
2022/03/31 02:49:04;;;;;;;14.73;10.18;;;7.90;99.90;;;;;;1942659;73;21078;-78
2022/03/31 02:51:31;;;;;;;11.65;10.10;;;8.00;99.90;;;;;;1928316;73;21597;-78
2022/03/31 02:56:44;;;;;;;13.08;9.48;;;7.70;99.90;;;;;;1942807;74;21135;-78
2022/03/31 02:59:11;;;;;;;13.93;9.78;;;7.80;99.90;;;;;;1949701;73;21083;-77
2022/03/31 03:01:42;;;;;;;13.20;9.88;;;7.70;99.90;;;;;;1950387;73;21536;-78
2022/03/31 03:04:08;;;;;;;17.60;10.60;;;7.70;99.90;;;;;;1958969;73;21197;-78
2022/03/31 03:06:38;;;;;;;15.25;10.85;;;7.60;99.90;;;;;;1945474;73;21138;-77
2022/03/31 03:09:06;;;;;;;16.23;10.87;;;7.50;99.90;;;;;;1943666;72;21150;-78
2022/03/31 03:11:34;;;;;;;13.30;10.45;;;7.40;99.90;;;;;;1945583;74;21745;-77
2022/03/31 03:14:01;;;;;;;15.88;10.40;;;7.40;99.90;;;;;;1939035;73;21088;-78
2022/03/31 03:16:28;;;;;;;13.68;10.88;;;7.40;99.90;;;;;;1946056;73;21116;-78
2022/03/31 03:19:01;;;;;;;14.05;10.80;;;7.20;99.90;;;;;;1966286;73;21171;-78
2022/03/31 03:21:29;;;;;;;13.03;10.38;;;7.30;99.90;;;;;;1955801;73;21119;-77
2022/03/31 03:23:56;;;;;;;16.25;11.65;;;7.30;99.90;;;;;;1954016;73;21045;-77
2022/03/31 03:26:23;;;;;;;12.33;10.20;;;7.30;99.90;;;;;;1946294;73;21193;-78
2022/03/31 03:28:51;;;;;;;15.72;10.60;;;7.30;99.90;;;;;;1955679;71;21094;-77
2022/03/31 03:31:18;;;;;;;14.83;11.03;;;7.30;99.90;;;;;;1985351;72;21551;-77
2022/03/31 03:33:45;;;;;;;15.85;11.08;;;7.30;99.90;;;;;;1973590;71;21147;-77
2022/03/31 03:36:17;;;;;;;14.30;10.50;;;7.40;99.90;;;;;;1979104;72;21157;-77
2022/03/31 03:38:42;;;;;;;13.18;10.48;;;7.40;99.90;;;;;;1969973;71;21179;-77
2022/03/31 03:41:10;;;;;;;11.00;9.25;;;7.50;99.90;;;;;;1964205;72;21094;-77
2022/03/31 03:43:41;;;;;;;14.30;10.45;;;7.50;99.90;;;;;;1948836;73;21464;-77
2022/03/31 03:46:12;;;;;;;12.30;10.35;;;7.30;99.90;;;;;;1922325;73;21225;-78
2022/03/31 03:48:38;;;;;;;;;;;7.20;99.90;;;;;;1945650;73;21444;-77
2022/03/31 03:51:06;;;;;;;18.25;10.30;;;7.50;99.90;;;;;;1959592;71;20150;-77
2022/03/31 03:53:34;;;;;;;14.18;10.93;;;7.30;99.90;;;;;;1922793;73;21525;-77
2022/03/31 03:56:01;;;;;;;16.15;11.45;;;7.40;99.90;;;;;;1945331;73;21130;-77
2022/03/31 03:58:30;;;;;;;13.38;10.30;;;7.30;99.90;;;;;;1930371;73;21092;-77
2022/03/31 04:00:59;;;;;;;16.70;11.05;;;7.20;99.90;;;;;;1955244;72;21087;-76
2022/03/31 04:03:26;;;;;;;16.80;11.18;;;7.20;99.90;;;;;;1946081;73;21433;-77
2022/03/31 04:05:55;;;;;;;15.48;11.50;;;7.20;99.90;;;;;;1945501;73;21069;-77
2022/03/31 04:08:23;;;;;;;16.45;11.78;;;7.20;99.90;;;;;;1991483;71;21565;-77
2022/03/31 04:10:51;;;;;;;14.33;10.98;;;7.20;99.90;;;;;;1966934;71;21103;-78
2022/03/31 04:13:18;;;;;;;14.63;10.70;;;7.20;99.90;;;;;;1932734;74;21156;-78
2022/03/31 04:15:45;;;;;;;14.78;11.35;;;7.20;99.90;;;;;;1933183;74;21196;-77
2022/03/31 04:18:13;;;;;;;13.50;11.03;;;7.40;99.90;;;;;;1932162;73;21158;-78
2022/03/31 04:20:41;;;;;;;15.80;11.40;;;7.40;99.90;;;;;;1932197;74;21115;-78
2022/03/31 04:23:08;;;;;;;15.65;11.65;;;7.40;99.90;;;;;;1932091;73;21573;-78
2022/03/31 04:25:37;;;;;;;14.15;11.00;;;7.20;99.90;;;;;;1932029;74;21108;-77
2022/03/31 04:28:05;;;;;;;14.15;10.95;;;7.20;99.90;;;;;;1932074;74;21086;-78
2022/03/31 04:30:33;;;;;;;12.70;10.72;;;7.20;99.90;;;;;;1932036;74;21491;-76
2022/03/31 04:33:01;;;;;;;12.63;11.15;;;7.00;99.90;;;;;;1932063;74;21225;-77
2022/03/31 04:35:29;;;;;;;14.00;11.43;;;6.90;99.90;;;;;;1932052;74;21141;-78
2022/03/31 04:37:58;;;;;;;17.55;11.53;;;6.90;99.90;;;;;;1932101;74;21187;-77
2022/03/31 04:40:25;;;;;;;17.35;11.75;;;7.10;99.90;;;;;;1932246;74;21511;-77
2022/03/31 04:42:54;;;;;;;15.80;12.35;;;6.90;99.90;;;;;;1932095;74;21682;-77
2022/03/31 04:45:22;;;;;;;19.77;12.98;;;6.70;99.90;;;;;;1932068;74;21268;-77
2022/03/31 04:47:49;;;;;;;14.85;11.20;;;6.70;99.90;;;;;;1932295;74;21067;-77
2022/03/31 04:50:16;;;;;;;16.65;11.28;;;6.80;99.90;;;;;;1932588;74;21263;-77
2022/03/31 04:52:44;;;;;;;13.95;10.63;;;6.80;99.90;;;;;;1932474;73;21085;-77
2022/03/31 04:55:11;;;;;;;17.85;10.90;;;7.00;99.90;;;;;;1932361;73;21081;-77
2022/03/31 04:57:38;;;;;;;16.12;11.25;;;7.00;99.90;;;;;;1932372;74;21463;-77
2022/03/31 05:00:07;;;;;;;18.87;11.55;;;7.00;99.90;;;;;;1932562;73;21170;-77
2022/03/31 05:02:38;;;;;;;14.28;11.08;;;7.00;99.90;;;;;;1897246;74;21124;-78
2022/03/31 05:05:05;;;;;;;;;;;6.90;99.90;;;;;;1935212;74;21552;-78
2022/03/31 05:07:32;;;;;;;16.65;10.85;;;7.00;99.90;;;;;;1932349;74;20153;-77
2022/03/31 05:09:59;;;;;;;17.87;11.30;;;7.10;99.90;;;;;;1932359;74;21208;-77
2022/03/31 05:12:28;;;;;;;13.70;11.28;;;7.00;99.90;;;;;;1932401;73;21098;-76
2022/03/31 05:14:55;;;;;;;18.15;12.10;;;6.80;99.90;;;;;;1932382;73;21134;-75
2022/03/31 05:17:25;;;;;;;14.75;11.75;;;6.70;99.90;;;;;;1932652;74;21191;-77
2022/03/31 05:19:54;;;;;;;15.55;12.07;;;6.80;99.90;;;;;;1932369;74;21227;-78
2022/03/31 05:22:23;;;;;;;15.00;11.28;;;6.70;99.90;;;;;;1932332;74;21060;-76
2022/03/31 05:24:51;;;;;;;14.80;12.35;;;6.80;99.90;;;;;;1932757;73;21578;-77
2022/03/31 05:27:20;;;;;;;15.68;12.45;;;6.70;99.90;;;;;;1932571;74;21458;-76
2022/03/31 05:29:47;;;;;;;14.10;11.03;;;6.80;99.90;;;;;;1932415;73;21105;-76
2022/03/31 05:32:15;;;;;;;17.48;11.93;;;6.80;99.90;;;;;;1932400;74;21063;-76
2022/03/31 05:34:42;;;;;;;15.63;11.88;;;6.80;99.90;;;;;;1932190;74;21217;-77
2022/03/31 05:37:10;;;;;;;15.60;11.22;;;6.80;99.90;;;;;;1896729;74;21086;-77
2022/03/31 05:39:39;;;;;;;15.30;12.10;;;7.20;99.90;;;;;;1932277;74;21475;-77
2022/03/31 05:42:07;;;;;;;13.65;11.53;;;7.10;99.90;;;;;;1932132;74;21260;-77
2022/03/31 05:44:34;;;;;;;15.72;10.90;;;7.10;99.90;;;;;;1932183;73;21075;-78
2022/03/31 05:47:01;;;;;;;17.45;12.43;;;7.10;99.90;;;;;;1932162;74;21231;-78
2022/03/31 05:49:30;;;;;;;15.20;11.63;;;7.10;99.90;;;;;;1896580;74;21068;-76
2022/03/31 05:51:57;;;;;;;15.15;11.68;;;7.00;99.90;;;;;;1932210;74;21153;-77
2022/03/31 05:54:25;;;;;;;14.40;11.63;;;7.00;99.90;;;;;;1932243;73;21060;-76
2022/03/31 05:56:53;;;;;;;14.03;11.50;;;7.00;99.90;;;;;;1932361;74;21118;-77
2022/03/31 05:59:20;;;;;;;15.45;12.07;;;7.00;99.90;;;;;;1932411;73;21477;-78
2022/03/31 06:01:47;;;;;;;15.75;12.60;;;7.00;99.90;;;;;;1932348;74;21094;-78
2022/03/31 06:04:20;;;;;;;15.68;10.80;;;7.10;99.90;;;;;;1932181;74;21045;-78
2022/03/31 06:06:49;;;;;;;16.10;11.70;;;7.20;99.90;;;;;;1931563;74;21132;-78
2022/03/31 06:09:18;;;;;;;17.57;12.50;;;7.30;99.90;;;;;;1932529;74;21121;-78
2022/03/31 06:11:47;;;;;;;15.32;12.37;;;7.10;99.90;;;;;;1897291;74;21544;-77
2022/03/31 06:14:14;;;;;;;19.10;12.23;;;7.10;99.90;;;;;;1932240;74;21486;-77
2022/03/31 06:16:43;;;;;;;17.60;12.03;;;7.20;99.90;;;;;;1932263;73;21160;-77
2022/03/31 06:19:10;;;;;;;18.40;13.03;;;7.30;99.90;;;;;;1932368;74;21155;-78
2022/03/31 06:21:38;;;;;;;17.98;12.78;;;7.20;99.90;;;;;;1932424;74;21086;-77
2022/03/31 06:24:08;;;;;;;16.42;12.35;;;7.20;99.90;;;;;;1932398;74;21513;-77
2022/03/31 06:26:35;;;;;;;15.88;12.25;;;7.20;99.90;;;;;;1932833;74;21137;-77
2022/03/31 06:29:02;;;;;;;19.65;13.22;;;7.20;99.90;;;;;;1932413;74;21063;-78
2022/03/31 06:31:30;;;;;;;13.50;12.10;;;7.20;99.90;;;;;;1932503;73;21081;-78
2022/03/31 06:33:59;;;;;;;22.00;11.83;;;7.20;99.90;;;;;;1932476;73;21184;-77
2022/03/31 06:36:28;;;;;;;16.57;12.80;;;7.40;99.90;;;;;;1932371;73;21209;-77
2022/03/31 06:38:57;;;;;;;17.37;11.95;;;7.30;99.90;;;;;;1932533;73;21192;-77
2022/03/31 06:41:24;;;;;;;15.50;12.40;;;7.50;99.90;;;;;;1932552;74;21083;-78
2022/03/31 06:43:52;;;;;;;17.95;12.53;;;7.30;99.90;;;;;;1932600;74;21236;-76
2022/03/31 06:46:20;;;;;;;17.50;11.75;;;7.40;99.90;;;;;;1932710;73;21162;-76
2022/03/31 06:48:48;;;;;;;19.15;11.97;;;7.60;99.90;;;;;;1932725;73;21098;-76
2022/03/31 06:51:20;;;;;;;15.08;11.88;;;7.60;99.90;;;;;;1932627;74;21101;-78
2022/03/31 06:53:46;;;;;;;15.90;11.83;;;7.70;99.90;;;;;;1930908;74;21274;-77
2022/03/31 06:56:16;;;;;;;15.78;12.18;;;7.60;99.90;;;;;;1932470;74;21089;-78
2022/03/31 06:58:44;;;;;;;14.47;11.90;;;7.60;99.90;;;;;;1932757;74;21510;-80
2022/03/31 07:01:12;;;;;;;15.18;12.47;;;7.50;99.90;;;;;;1932793;74;21507;-76
2022/03/31 07:03:39;;;;;;;20.02;13.60;;;7.30;99.90;;;;;;1932685;74;21115;-76
2022/03/31 07:06:07;;;;;;;16.67;13.05;;;7.30;99.90;;;;;;1932635;74;21121;-79
2022/03/31 07:08:35;;;;;;;18.90;12.20;;;7.50;99.90;;;;;;1932417;74;21229;-78
2022/03/31 07:11:04;;;;;;;13.72;11.55;;;7.50;99.90;;;;;;1932388;74;21474;-78
2022/03/31 07:13:31;;;;;;;15.05;12.40;;;7.60;99.90;;;;;;1932275;74;21478;-77
2022/03/31 07:15:58;;;;;;;16.40;12.05;;;7.60;99.90;;;;;;1932319;74;21086;-77
2022/03/31 07:18:26;;;;;;;15.23;12.03;;;7.60;99.90;;;;;;1932329;74;21483;-75
2022/03/31 07:20:53;;;;;;;15.85;11.12;;;7.70;99.90;;;;;;1960687;73;21185;-77
2022/03/31 07:23:23;;;;;;;18.90;12.65;;;7.60;99.90;;;;;;1959225;73;21126;-76
2022/03/31 07:25:51;;;;;;;15.38;12.45;;;7.50;99.90;;;;;;1958922;73;21195;-78
2022/03/31 07:28:18;;;;;;;17.92;12.95;;;7.70;99.90;;;;;;1945430;74;21087;-78
2022/03/31 07:30:47;;;;;;;16.87;11.78;;;7.80;99.90;;;;;;1929026;73;21540;-78
2022/03/31 07:33:14;;;;;;;17.55;12.47;;;8.00;99.90;;;;;;1947300;73;21496;-77
2022/03/31 07:35:42;;;;;;;13.60;11.40;;;8.30;99.90;;;;;;1958905;73;21115;-78
2022/03/31 07:38:10;;;;;;;13.70;11.73;;;8.40;99.90;;;;;;1938776;73;21131;-77
2022/03/31 07:40:38;;;;;;;16.23;11.80;;;8.60;99.90;;;;;;1931307;73;21217;-78
2022/03/31 07:43:05;;;;;;;14.65;11.70;;;8.30;99.90;;;;;;1930328;73;21101;-77
2022/03/31 07:45:38;;;;;;;19.32;12.58;;;8.40;99.90;;;;;;1955767;73;21191;-80
2022/03/31 07:48:03;;;;;;;16.67;12.47;;;8.30;99.90;;;;;;1950001;73;21099;-77
2022/03/31 07:50:30;;;;;;;16.70;12.90;;;8.00;99.90;;;;;;1942671;73;21068;-77
2022/03/31 07:52:58;;;;;;;18.52;12.60;;;8.10;99.90;;;;;;1948548;73;21606;-77
2022/03/31 07:55:25;;;;;;;15.63;12.03;;;8.00;99.90;;;;;;1951221;73;21124;-77
2022/03/31 07:57:53;;;;;;;21.62;12.90;;;7.90;99.90;;;;;;1954470;73;21206;-78
2022/03/31 08:00:22;;;;;;;15.60;12.33;;;8.00;99.90;;;;;;1954032;73;21246;-79
2022/03/31 08:02:51;;;;;;;38.42;13.03;;;8.10;99.90;;;;;;1946107;73;21115;-77
2022/03/31 08:05:22;;;;;;;14.45;11.60;;;8.10;99.90;;;;;;1945645;74;21521;-78
2022/03/31 08:07:50;;;;;;;20.30;12.10;;;8.20;99.90;;;;;;1928210;73;21123;-77
2022/03/31 08:10:17;;;;;;;16.62;11.95;;;8.20;99.90;;;;;;1943458;72;21095;-78
2022/03/31 08:12:45;;;;;;;17.60;13.35;;;8.30;99.90;;;;;;1942853;73;21558;-78
2022/03/31 08:15:15;;;;;;;14.55;11.93;;;8.10;99.90;;;;;;1951694;73;21518;-77
2022/03/31 08:17:45;;;;;;;18.63;13.50;;;8.20;99.90;;;;;;1954101;73;21558;-79
2022/03/31 08:20:13;;;;;;;19.95;12.98;;;8.00;99.90;;;;;;1945718;73;21527;-77
2022/03/31 08:22:40;;;;;;;20.50;13.75;;;7.80;99.90;;;;;;1959463;73;21499;-79
2022/03/31 08:25:08;;;;;;;21.48;14.07;;;8.00;99.90;;;;;;1909383;74;21119;-77
2022/03/31 08:27:36;;;;;;;20.23;13.98;;;8.20;99.90;;;;;;1948806;73;21066;-78
2022/03/31 08:30:06;;;;;;;21.15;13.53;;;8.20;99.90;;;;;;1956699;73;21141;-79
2022/03/31 08:32:35;;;;;;;17.77;13.53;;;8.40;99.90;;;;;;1933030;73;21188;-79
2022/03/31 08:35:03;;;;;;;16.50;13.22;;;8.40;99.90;;;;;;1946334;73;21188;-78
2022/03/31 08:37:31;;;;;;;26.07;14.18;;;8.30;99.90;;;;;;1940567;73;21127;-79
2022/03/31 08:39:58;;;;;;;23.90;13.98;;;8.30;99.90;;;;;;1945434;73;21120;-80
2022/03/31 08:42:25;;;;;;;19.42;13.60;;;8.40;99.90;;;;;;1951020;73;21227;-78
2022/03/31 08:44:53;;;;;;;21.68;14.83;;;8.10;99.90;;;;;;1940517;73;21191;-79
2022/03/31 08:47:22;;;;;;;22.05;14.45;;;8.10;99.90;;;;;;1956083;73;21065;-79
2022/03/31 08:49:49;;;;;;;22.65;14.98;;;8.20;99.90;;;;;;1945874;73;21157;-78
2022/03/31 08:52:16;;;;;;;20.05;15.30;;;8.20;99.90;;;;;;1950175;73;21560;-78
2022/03/31 08:54:43;;;;;;;21.17;14.78;;;8.10;99.90;;;;;;1945774;73;21112;-79
2022/03/31 08:57:11;;;;;;;19.05;14.30;;;8.30;99.90;;;;;;1945602;73;21544;-79
2022/03/31 08:59:40;;;;;;;21.85;15.28;;;8.30;99.90;;;;;;1938773;73;21212;-79
2022/03/31 09:02:07;;;;;;;19.37;15.03;;;8.30;99.90;;;;;;1942029;73;21182;-78
2022/03/31 09:04:34;;;;;;;22.50;14.15;;;8.30;99.90;;;;;;1953060;73;21120;-78
2022/03/31 09:07:07;;;;;;;28.83;15.10;;;8.50;99.90;;;;;;1945640;73;21154;-78
2022/03/31 09:09:48;;;;;;;20.40;14.53;;;8.60;99.90;;;;;;1972677;70;21114;-77
2022/03/31 09:12:15;;;;;;;27.22;15.83;;;8.90;99.90;;;;;;1988229;72;21102;-79
2022/03/31 09:14:43;;;;;;;19.70;15.23;;;8.60;99.90;;;;;;1932645;74;21155;-80
2022/03/31 09:17:15;;;;;;;28.50;16.35;;;8.40;99.90;;;;;;1932160;73;21172;-81
2022/03/31 09:19:45;;;;;;;28.85;16.60;;;8.10;99.90;;;;;;1931941;74;21070;-77
2022/03/31 09:22:12;;;;;;;28.55;17.77;;;8.10;99.90;;;;;;1932362;74;21079;-78
2022/03/31 09:24:40;;;;;;;23.55;16.50;;;8.40;99.90;;;;;;1932035;74;21086;-76
2022/03/31 09:27:07;;;;;;;25.90;16.77;;;8.50;99.90;;;;;;1932037;74;21115;-77
2022/03/31 09:29:34;;;;;;;23.77;16.80;;;8.20;99.90;;;;;;1932111;74;21082;-78
2022/03/31 09:32:12;;;;;;;26.12;16.75;;;8.30;99.90;;;;;;1932153;74;21615;-76
2022/03/31 09:34:41;;;;;;;25.27;16.97;;;8.50;99.90;;;;;;1932184;74;21550;-77
2022/03/31 09:37:09;;;;;;;33.00;16.95;;;8.50;99.90;;;;;;1932911;74;21103;-76
2022/03/31 09:39:37;;;;;;;25.30;17.07;;;8.90;99.90;;;;;;1931903;74;21095;-79
2022/03/31 09:42:12;;;;;;;30.40;18.12;;;9.00;99.90;;;;;;1932192;74;21108;-77
2022/03/31 09:44:42;;;;;;;31.95;17.10;;;9.20;99.90;;;;;;1932227;74;21072;-77
2022/03/31 09:47:09;;;;;;;28.55;17.27;;;9.40;99.90;;;;;;1933182;74;21565;-77
2022/03/31 09:49:40;;;;;;;25.95;17.07;;;9.40;99.90;;;;;;1932668;74;21530;-76
2022/03/31 09:52:10;;;;;;;29.65;16.65;;;9.40;99.90;;;;;;1932438;74;21114;-75
2022/03/31 09:57:59;;;;;;;27.52;16.00;;;9.80;99.90;;;;;;1935131;74;21138;-74
2022/03/31 10:00:39;;;;;;;26.95;16.07;;;9.40;99.90;;;;;;1932352;74;21242;-75
2022/03/31 10:03:06;;;;;;;29.15;17.23;;;9.50;99.90;;;;;;1930431;74;21208;-76
2022/03/31 10:05:42;;;;;;;27.32;16.25;;;9.50;99.90;;;;;;1932267;74;21461;-75
2022/03/31 10:11:27;;;;;;;24.05;15.38;;;9.60;99.90;;;;;;1910463;74;21166;-77
2022/03/31 10:14:25;;;;;;;28.50;16.55;;;9.80;99.90;;;;;;1911604;75;21556;-76
2022/03/31 10:17:07;;;;;;;31.55;17.60;;;9.90;99.90;;;;;;1910647;75;21557;-75
2022/03/31 10:19:42;;;;;;;23.73;15.45;;;10.10;99.90;;;;;;1914139;74;21114;-75
2022/03/31 10:25:26;;;;;;;22.10;14.80;;;10.70;99.90;;;;;;1911896;75;21156;-77
2022/03/31 10:28:08;;;;;;;23.92;15.68;;;11.10;99.90;;;;;;1912915;75;21225;-80
2022/03/31 10:31:06;;;;;;;24.98;15.90;;;10.70;99.90;;;;;;1900768;75;21140;-79
2022/03/31 10:33:50;;;;;;;22.75;15.40;;;10.60;99.90;;;;;;1907702;74;21109;-79
2022/03/31 10:36:30;;;;;;;23.07;14.93;;;10.20;99.90;;;;;;1879755;75;21109;-77
2022/03/31 10:39:09;;;;;;;27.73;16.93;;;10.20;99.90;;;;;;1897595;74;21157;-79
2022/03/31 10:41:55;;;;;;;25.27;17.17;;;10.30;99.90;;;;;;1904177;74;21242;-78
2022/03/31 10:44:33;;;;;;;25.40;15.88;;;10.00;99.90;;;;;;1946641;72;21210;-79
2022/03/31 10:47:20;;;;;;;24.70;15.78;;;10.30;99.90;;;;;;1956390;72;21156;-78
2022/03/31 10:50:07;;;;;;;28.00;16.20;;;10.60;99.90;;;;;;1953635;72;21206;-75
2022/03/31 10:52:47;;;;;;;27.85;15.75;;;10.80;99.90;;;;;;1953600;72;21138;-76
2022/03/31 10:55:29;;;;;;;28.40;16.62;;;10.80;99.90;;;;;;1950903;72;21125;-78
2022/03/31 10:57:56;;;;;;;22.95;15.40;;;10.80;99.90;;;;;;1955872;72;21128;-77
2022/03/31 11:00:25;;;;;;;24.60;15.85;;;10.80;99.90;;;;;;1956710;72;21180;-77
2022/03/31 11:02:54;;;;;;;28.75;17.00;;;11.00;99.90;;;;;;1954859;72;21636;-78
2022/03/31 11:05:29;;;;;;;22.70;15.75;;;10.70;99.90;;;;;;1933493;73;21620;-79
2022/03/31 11:08:04;;;;;;;24.10;15.45;;;10.80;99.90;;;;;;1947043;73;21116;-77
2022/03/31 11:10:42;;;;;;;22.85;15.00;;;11.00;99.90;;;;;;1950677;73;21505;-78
2022/03/31 11:13:10;;;;;;;23.50;16.45;;;11.20;99.90;;;;;;1955597;72;21187;-77
2022/03/31 11:15:38;;;;;;;23.15;15.48;;;11.60;99.90;;;;;;1955547;72;21183;-76
2022/03/31 11:18:07;;;;;;;23.70;16.12;;;11.90;99.90;;;;;;1954283;72;21610;-75
2022/03/31 11:20:34;;;;;;;22.32;15.10;;;11.90;99.90;;;;;;1955242;72;21114;-76
2022/03/31 11:23:03;;;;;;;28.40;16.17;;;11.30;99.90;;;;;;1953948;72;21168;-75
2022/03/31 11:25:31;;;;;;;25.05;16.30;;;11.00;99.90;;;;;;1951440;72;21148;-76
2022/03/31 11:27:58;;;;;;;28.65;16.45;;;11.40;99.90;;;;;;1953621;72;21185;-77
2022/03/31 11:30:29;;;;;;;25.85;16.37;;;11.30;99.90;;;;;;1956637;73;21076;-77
2022/03/31 11:32:56;;;;;;;26.40;15.30;;;11.30;99.90;;;;;;1955384;72;21242;-76
2022/03/31 11:35:25;;;;;;;24.82;15.98;;;11.40;99.90;;;;;;1956818;72;21117;-76
2022/03/31 11:38:02;;;;;;;24.77;15.45;;;11.50;99.90;;;;;;1952252;72;21128;-78
2022/03/31 11:40:40;;;;;;;22.30;15.45;;;11.60;99.90;;;;;;1956722;72;21532;-77
2022/03/31 11:43:09;;;;;;;21.62;14.58;;;11.70;99.90;;;;;;1954771;72;21206;-76
2022/03/31 11:45:45;;;;;;;35.85;16.00;;;12.40;99.90;;;;;;1951280;72;21108;-77
2022/03/31 11:48:14;;;;;;;23.18;15.23;;;12.20;99.90;;;;;;1920926;74;21092;-78
2022/03/31 11:51:00;;;;;;;24.60;16.42;;;12.00;99.90;;;;;;1927181;73;21131;-76
2022/03/31 11:53:32;;;;;;;25.15;15.98;;;12.20;99.90;;;;;;1951527;72;21239;-77
2022/03/31 11:56:02;;;;;;;20.92;14.55;;;11.90;99.90;;;;;;1950215;72;21103;-77
2022/03/31 11:58:35;;;;;;;19.27;13.75;;;12.40;99.90;;;;;;1955694;72;21119;-76
2022/03/31 12:01:02;;;;;;;24.55;15.95;;;13.10;99.90;;;;;;1947397;72;21233;-75
2022/03/31 12:03:37;;;;;;;22.82;16.05;;;13.00;99.90;;;;;;1952361;72;21089;-75
2022/03/31 12:06:06;;;;;;;22.90;15.40;;;12.50;99.90;;;;;;1950340;73;21567;-77
2022/03/31 12:08:34;;;;;;;23.90;16.48;;;12.60;99.90;;;;;;1953739;72;21112;-75
2022/03/31 12:11:02;;;;;;;23.95;17.05;;;12.70;99.90;;;;;;1950267;73;21606;-75
2022/03/31 12:13:29;;;;;;;18.95;14.70;;;13.00;99.90;;;;;;1951792;72;21197;-76
2022/03/31 12:16:10;;;;;;;22.40;17.37;;;13.10;99.90;;;;;;1956844;73;21146;-76
2022/03/31 12:18:40;;;;;;;23.05;16.12;;;13.30;99.90;;;;;;1952497;72;21532;-77
2022/03/31 12:21:07;;;;;;;25.25;15.80;;;14.10;99.90;;;;;;1954961;72;21158;-77
2022/03/31 12:23:42;;;;;;;20.55;15.30;;;14.30;99.90;;;;;;1950443;72;21507;-76
2022/03/31 12:26:19;;;;;;;18.05;13.93;;;14.40;99.90;;;;;;1953468;72;21102;-76
2022/03/31 12:28:47;;;;;;;22.25;14.73;;;14.00;99.90;;;;;;1954459;72;21189;-77
2022/03/31 12:31:35;;;;;;;19.23;13.53;;;13.40;99.90;;;;;;1957700;72;21117;-76
2022/03/31 12:33:58;;;;;;;22.95;14.33;;;13.20;99.90;;;;;;1901613;74;21124;-76
2022/03/31 12:36:27;;;;;;;24.27;15.63;;;13.10;99.90;;;;;;1905787;74;21131;-77
2022/03/31 12:38:56;;;;;;;20.25;13.90;;;12.80;99.90;;;;;;1894755;75;21133;-77
2022/03/31 12:41:33;;;;;;;20.37;14.33;;;12.70;99.90;;;;;;1901209;74;21188;-77
2022/03/31 12:44:04;;;;;;;20.17;14.30;;;12.80;99.90;;;;;;1896645;74;21190;-76
2022/03/31 12:46:35;;;;;;;18.75;14.50;;;12.80;99.90;;;;;;1893612;74;21618;-79
2022/03/31 12:49:06;;;;;;;19.65;13.40;;;13.00;99.90;;;;;;1899892;74;21111;-77
2022/03/31 12:51:48;;;;;;;21.73;13.10;;;13.10;99.90;;;;;;1900124;74;21587;-77
2022/03/31 12:54:34;;;;;;;14.98;12.13;;;13.40;99.90;;;;;;1911808;74;21186;-77
2022/03/31 12:57:21;;;;;;;18.48;12.33;;;13.60;99.90;;;;;;1907762;74;21128;-77
2022/03/31 12:59:45;;;;;;;17.25;13.10;;;13.70;99.90;;;;;;1901075;74;21209;-76